Time;durP1;ratioP1;P1;durP2;ratioP2;P2;SDS_P1;SDS_P2;PMS_P1;PMS_P2;Temp;Humidity;BMP_temperature;BMP_pressure;BME280_temperature;BME280_humidity;BME280_pressure;Samples;Min_cycle;Max_cycle;Signal;HPM_P1;HPM_P2
2022/07/28 00:01:09;;;;;;;42.38;29.10;;;26.70;99.90;;;;;;5055439;28;20044;-65
2022/07/28 00:03:35;;;;;;;37.70;27.23;;;26.80;99.90;;;;;;5055392;28;20036;-65
2022/07/28 00:06:02;;;;;;;43.55;29.50;;;26.80;99.90;;;;;;5055285;28;20021;-66
2022/07/28 00:08:28;;;;;;;40.70;28.85;;;26.80;99.90;;;;;;5055314;28;20017;-65
2022/07/28 00:10:55;;;;;;;53.10;33.05;;;26.80;99.90;;;;;;5055362;28;20104;-65
2022/07/28 00:13:22;;;;;;;44.65;30.92;;;26.90;99.90;;;;;;5055197;28;20063;-66
2022/07/28 00:15:48;;;;;;;48.53;32.70;;;26.90;99.90;;;;;;5054860;28;20053;-66
2022/07/28 00:18:15;;;;;;;52.22;32.22;;;26.90;99.90;;;;;;5054917;28;20082;-66
2022/07/28 00:20:41;;;;;;;51.33;34.40;;;26.90;99.90;;;;;;5055040;28;20029;-66
2022/07/28 00:23:08;;;;;;;49.40;34.92;;;26.90;99.90;;;;;;5055041;28;20761;-66
2022/07/28 00:25:35;;;;;;;50.70;32.17;;;26.90;99.90;;;;;;5054974;28;20029;-66
2022/07/28 00:28:01;;;;;;;47.13;31.92;;;26.90;99.90;;;;;;5055024;28;20052;-65
2022/07/28 00:30:28;;;;;;;57.15;40.13;;;26.90;99.90;;;;;;5055057;28;20408;-66
2022/07/28 00:32:54;;;;;;;52.58;36.88;;;26.90;99.90;;;;;;5054785;28;20478;-67
2022/07/28 00:35:21;;;;;;;52.70;37.63;;;26.90;99.90;;;;;;5054881;28;20040;-66
2022/07/28 00:37:47;;;;;;;49.97;38.22;;;27.00;99.90;;;;;;5054747;28;20422;-66
2022/07/28 00:40:14;;;;;;;67.78;48.45;;;27.00;99.90;;;;;;5054667;28;20049;-66
2022/07/28 00:42:40;;;;;;;78.68;49.67;;;27.00;99.90;;;;;;5054745;28;20060;-67
2022/07/28 00:45:07;;;;;;;57.75;36.05;;;27.00;99.90;;;;;;5054758;28;20057;-67
2022/07/28 00:47:34;;;;;;;47.97;31.17;;;27.00;99.90;;;;;;5054525;28;20029;-66
2022/07/28 00:50:03;;;;;;;52.47;35.10;;;27.00;99.90;;;;;;5055114;28;20362;-65
2022/07/28 00:52:29;;;;;;;53.42;33.15;;;27.00;99.90;;;;;;5054633;28;20381;-67
2022/07/28 00:54:57;;;;;;;51.58;34.15;;;27.00;99.90;;;;;;5054611;28;20183;-63
2022/07/28 00:57:24;;;;;;;47.90;31.95;;;27.10;99.90;;;;;;5054410;28;20021;-65
2022/07/28 00:59:50;;;;;;;49.83;32.17;;;27.10;99.90;;;;;;5054130;28;20049;-65
2022/07/28 01:02:17;;;;;;;48.90;33.55;;;27.10;99.90;;;;;;5054302;28;20053;-65
2022/07/28 01:04:44;;;;;;;50.53;36.50;;;27.10;99.90;;;;;;5054557;28;20108;-66
2022/07/28 01:07:13;;;;;;;49.22;36.20;;;27.10;99.90;;;;;;5054113;28;20024;-66
2022/07/28 01:09:45;;;;;;;46.97;34.25;;;27.10;99.90;;;;;;5054091;28;20028;-65
2022/07/28 01:12:16;;;;;;;53.05;35.35;;;27.10;99.90;;;;;;5054190;28;20036;-66
2022/07/28 01:14:48;;;;;;;43.45;33.45;;;27.10;99.90;;;;;;5054083;28;20568;-66
2022/07/28 01:17:17;;;;;;;49.45;34.65;;;27.10;99.90;;;;;;5054360;28;20036;-66
2022/07/28 01:20:08;;;;;;;49.13;35.80;;;27.10;99.90;;;;;;5053851;28;20052;-66
2022/07/28 01:22:41;;;;;;;49.30;35.40;;;27.20;99.90;;;;;;5051154;28;20033;-66
2022/07/28 01:25:11;;;;;;;57.85;36.13;;;27.20;99.90;;;;;;5053866;28;20240;-69
2022/07/28 01:28:00;;;;;;;50.92;40.35;;;27.20;99.90;;;;;;5053729;28;20100;-71
2022/07/28 01:30:40;;;;;;;55.97;39.25;;;27.30;99.90;;;;;;5046864;28;20061;-71
2022/07/28 01:33:13;;;;;;;47.90;36.22;;;27.40;99.90;;;;;;5053900;28;20021;-70
2022/07/28 01:35:50;;;;;;;55.17;39.35;;;27.40;99.90;;;;;;5053664;28;20021;-75
2022/07/28 01:38:19;;;;;;;54.35;35.53;;;27.40;99.90;;;;;;5053701;28;20493;-75
2022/07/28 01:40:46;;;;;;;50.88;36.88;;;27.40;99.90;;;;;;5068795;28;20024;-71
2022/07/28 01:43:17;;;;;;;47.50;36.08;;;27.50;99.90;;;;;;5053618;28;20417;-72
2022/07/28 01:45:45;;;;;;;52.85;38.08;;;27.60;99.90;;;;;;5053744;28;20021;-72
2022/07/28 01:48:14;;;;;;;56.50;37.42;;;27.60;99.90;;;;;;5053328;28;20055;-72
2022/07/28 01:50:42;;;;;;;57.20;40.92;;;27.70;99.90;;;;;;5053521;28;20107;-73
2022/07/28 01:53:11;;;;;;;48.15;36.00;;;27.70;99.90;;;;;;5053303;28;20040;-72
2022/07/28 01:55:38;;;;;;;54.70;35.58;;;27.70;99.90;;;;;;5053342;28;20021;-73
2022/07/28 01:58:06;;;;;;;53.28;37.83;;;27.70;99.90;;;;;;5053480;28;20032;-73
2022/07/28 02:00:34;;;;;;;48.33;36.20;;;27.80;99.90;;;;;;5053640;28;20228;-73
2022/07/28 02:03:05;;;;;;;55.13;37.63;;;27.80;99.90;;;;;;5053411;28;20028;-72
2022/07/28 02:05:34;;;;;;;47.40;34.60;;;27.90;99.90;;;;;;5053565;28;20025;-69
2022/07/28 02:08:04;;;;;;;47.67;37.05;;;27.90;99.90;;;;;;5053301;28;20035;-68
2022/07/28 02:10:32;;;;;;;48.88;36.42;;;27.90;99.90;;;;;;5063511;28;20055;-69
2022/07/28 02:13:00;;;;;;;54.38;35.55;;;27.90;99.90;;;;;;5053933;28;20024;-68
2022/07/28 02:15:28;;;;;;;49.38;34.47;;;28.00;99.90;;;;;;5053050;28;20078;-68
2022/07/28 02:17:55;;;;;;;41.67;33.10;;;28.10;99.90;;;;;;5053374;28;20470;-68
2022/07/28 02:20:22;;;;;;;43.22;34.40;;;28.00;99.90;;;;;;5053161;28;20072;-68
2022/07/28 02:22:51;;;;;;;47.53;34.55;;;28.10;99.90;;;;;;5053358;28;20508;-70
2022/07/28 02:25:18;;;;;;;48.83;33.92;;;28.10;99.90;;;;;;5053081;28;20032;-68
2022/07/28 02:27:49;;;;;;;46.20;33.90;;;28.20;99.90;;;;;;5053053;28;20017;-69
2022/07/28 02:30:24;;;;;;;43.50;33.35;;;28.30;99.90;;;;;;5052933;28;20108;-71
2022/07/28 02:32:55;;;;;;;46.83;34.92;;;28.30;99.90;;;;;;5052862;28;20104;-70
2022/07/28 02:35:27;;;;;;;48.58;33.67;;;28.40;99.90;;;;;;5053046;28;20040;-69
2022/07/28 02:37:59;;;;;;;48.30;37.05;;;28.50;99.90;;;;;;5052926;28;20032;-70
2022/07/28 02:40:32;;;;;;;44.22;35.13;;;28.60;99.90;;;;;;5055122;28;20036;-68
2022/07/28 02:43:00;;;;;;;46.20;33.25;;;28.60;99.90;;;;;;5056835;28;20024;-67
2022/07/28 02:45:29;;;;;;;46.05;33.65;;;28.70;99.90;;;;;;5056974;28;20017;-67
2022/07/28 02:48:03;;;;;;;48.65;37.20;;;28.80;99.90;;;;;;5056735;28;20048;-69
2022/07/28 02:50:29;;;;;;;57.58;40.92;;;28.90;99.90;;;;;;5056763;28;20033;-69
2022/07/28 02:53:01;;;;;;;55.40;39.03;;;28.90;99.90;;;;;;5056743;28;20032;-69
2022/07/28 02:55:28;;;;;;;51.20;36.85;;;29.00;99.90;;;;;;5056584;28;20037;-70
2022/07/28 02:57:57;;;;;;;48.53;37.15;;;29.00;99.90;;;;;;5056772;28;20029;-70
2022/07/28 03:00:25;;;;;;;49.88;35.38;;;29.00;99.90;;;;;;5056563;28;20104;-69
2022/07/28 03:02:55;;;;;;;49.40;36.22;;;29.10;99.90;;;;;;5056369;28;20391;-69
2022/07/28 03:05:22;;;;;;;47.03;35.35;;;29.10;99.90;;;;;;5056579;28;20032;-69
2022/07/28 03:07:51;;;;;;;48.55;36.83;;;29.20;99.90;;;;;;5056544;28;20024;-69
2022/07/28 03:10:24;;;;;;;49.92;37.35;;;29.20;99.90;;;;;;5056279;28;20028;-69
2022/07/28 03:12:51;;;;;;;49.35;36.05;;;29.30;99.90;;;;;;5056326;28;20056;-70
2022/07/28 03:15:18;;;;;;;47.92;35.63;;;29.30;99.90;;;;;;5056233;28;20513;-69
2022/07/28 03:17:45;;;;;;;47.17;37.55;;;29.40;99.90;;;;;;5056076;28;20442;-70
2022/07/28 03:20:12;;;;;;;45.53;34.55;;;29.40;99.90;;;;;;5056629;28;20351;-68
2022/07/28 03:22:39;;;;;;;44.20;37.20;;;29.50;99.90;;;;;;5067337;28;20024;-68
2022/07/28 03:25:11;;;;;;;57.85;38.72;;;29.60;99.90;;;;;;5076068;28;20059;-69
2022/07/28 03:27:40;;;;;;;54.28;39.00;;;29.60;99.90;;;;;;5057043;28;20025;-69
2022/07/28 03:30:12;;;;;;;61.97;43.67;;;29.60;99.90;;;;;;5056162;28;20049;-68
2022/07/28 03:32:43;;;;;;;55.05;40.50;;;29.70;99.90;;;;;;5056089;28;20398;-68
2022/07/28 03:35:10;;;;;;;55.40;38.88;;;29.70;99.90;;;;;;5056020;28;20040;-68
2022/07/28 03:37:46;;;;;;;47.72;36.88;;;29.60;99.90;;;;;;5058200;28;20086;-68
2022/07/28 03:40:13;;;;;;;48.65;38.78;;;29.80;99.90;;;;;;5064812;28;20029;-68
2022/07/28 03:42:44;;;;;;;59.03;40.65;;;29.80;99.90;;;;;;5055832;28;20424;-69
2022/07/28 03:45:11;;;;;;;67.07;42.38;;;29.80;99.90;;;;;;5055887;28;20021;-69
2022/07/28 03:47:38;;;;;;;48.80;40.00;;;29.80;99.90;;;;;;5055878;28;20013;-70
2022/07/28 03:50:05;;;;;;;57.30;41.40;;;29.80;99.90;;;;;;5056294;28;20457;-68
2022/07/28 03:52:31;;;;;;;52.00;40.28;;;29.80;99.90;;;;;;5056908;28;20056;-70
2022/07/28 03:54:58;;;;;;;43.75;35.25;;;30.00;99.90;;;;;;5065190;28;20043;-69
2022/07/28 03:57:24;;;;;;;48.78;36.03;;;30.20;99.90;;;;;;5063739;28;20029;-69
2022/07/28 03:59:51;;;;;;;44.53;33.90;;;30.20;99.90;;;;;;5065216;28;20059;-69
2022/07/28 04:02:17;;;;;;;42.33;34.17;;;30.30;99.90;;;;;;5064892;28;20074;-73
2022/07/28 04:04:44;;;;;;;46.70;34.50;;;30.50;99.90;;;;;;5066780;28;20020;-68
2022/07/28 04:07:10;;;;;;;41.28;32.20;;;30.50;99.90;;;;;;5066540;28;20016;-69
2022/07/28 04:09:37;;;;;;;39.88;32.65;;;30.50;99.90;;;;;;5064549;28;20021;-69
2022/07/28 04:12:04;;;;;;;38.42;33.67;;;30.50;99.90;;;;;;5063525;28;20457;-69
2022/07/28 04:14:30;;;;;;;44.60;31.52;;;30.60;99.90;;;;;;5065100;28;20032;-69
2022/07/28 04:16:57;;;;;;;43.88;33.22;;;30.60;99.90;;;;;;5064292;28;20048;-69
2022/07/28 04:19:23;;;;;;;35.55;31.67;;;30.70;99.90;;;;;;5063407;28;20100;-69
2022/07/28 04:21:50;;;;;;;38.95;29.90;;;30.70;99.90;;;;;;5065803;28;20509;-69
2022/07/28 04:24:16;;;;;;;35.13;28.48;;;30.70;99.90;;;;;;5064189;28;20017;-69
2022/07/28 04:26:43;;;;;;;41.85;30.65;;;30.70;99.90;;;;;;5062685;28;20021;-71
2022/07/28 04:29:09;;;;;;;36.80;31.70;;;30.80;99.90;;;;;;5055369;28;20021;-72
2022/07/28 04:31:36;;;;;;;37.15;31.85;;;30.80;99.90;;;;;;5055168;28;20032;-68
2022/07/28 04:34:02;;;;;;;42.03;31.75;;;30.70;99.90;;;;;;5055016;28;20025;-69
2022/07/28 04:36:29;;;;;;;41.00;29.88;;;30.70;99.90;;;;;;5062147;28;20036;-69
2022/07/28 04:38:58;;;;;;;36.22;31.30;;;30.60;99.90;;;;;;5064927;28;20017;-69
2022/07/28 04:41:26;;;;;;;38.28;30.67;;;30.70;99.90;;;;;;5063564;28;20020;-68
2022/07/28 04:43:52;;;;;;;41.28;30.70;;;30.70;99.90;;;;;;5069779;28;20028;-69
2022/07/28 04:46:19;;;;;;;38.92;32.13;;;30.80;99.90;;;;;;5062744;28;20016;-69
2022/07/28 04:48:45;;;;;;;42.90;30.40;;;30.80;99.90;;;;;;5064644;28;20089;-68
2022/07/28 04:51:12;;;;;;;38.97;30.48;;;30.90;99.90;;;;;;5069012;28;20445;-67
2022/07/28 04:53:39;;;;;;;42.10;30.60;;;31.00;99.90;;;;;;5062862;28;20057;-67
2022/07/28 04:56:05;;;;;;;39.22;29.45;;;31.00;99.90;;;;;;5064399;28;20036;-67
2022/07/28 04:58:32;;;;;;;39.35;28.10;;;31.10;99.90;;;;;;5064068;28;20478;-67
2022/07/28 05:00:58;;;;;;;37.60;30.20;;;31.20;99.90;;;;;;5061945;28;20045;-67
2022/07/28 05:03:25;;;;;;;32.70;26.92;;;31.20;99.90;;;;;;5054031;28;20029;-68
2022/07/28 05:05:52;;;;;;;37.95;28.70;;;31.30;99.90;;;;;;5063087;28;20512;-67
2022/07/28 05:08:18;;;;;;;35.92;28.40;;;31.20;99.90;;;;;;5070187;28;20017;-69
2022/07/28 05:10:45;;;;;;;33.38;28.70;;;31.20;99.90;;;;;;5063961;28;20381;-69
2022/07/28 05:13:11;;;;;;;40.30;27.40;;;31.30;99.90;;;;;;5068880;28;20028;-67
2022/07/28 05:15:38;;;;;;;41.58;29.45;;;31.30;99.90;;;;;;5055335;28;20078;-68
2022/07/28 05:18:04;;;;;;;37.25;30.52;;;31.40;99.90;;;;;;5052968;28;20056;-68
2022/07/28 05:20:32;;;;;;;40.38;29.92;;;31.50;99.90;;;;;;5070788;28;20021;-68
2022/07/28 05:22:58;;;;;;;35.53;28.20;;;31.60;99.90;;;;;;5071754;28;20016;-67
2022/07/28 05:25:25;;;;;;;32.10;28.50;;;31.60;99.90;;;;;;5071664;28;20009;-67
2022/07/28 05:27:53;;;;;;;30.15;26.73;;;31.50;99.90;;;;;;5067412;28;20083;-67
2022/07/28 05:30:20;;;;;;;33.47;27.40;;;31.40;99.90;;;;;;5062189;28;20024;-67
2022/07/28 05:32:49;;;;;;;40.03;31.85;;;31.40;99.90;;;;;;5063297;28;20096;-67
2022/07/28 05:35:16;;;;;;;32.10;27.33;;;31.40;99.90;;;;;;5063626;28;20025;-68
2022/07/28 05:37:42;;;;;;;39.20;28.27;;;31.40;99.90;;;;;;5073446;28;20032;-67
2022/07/28 05:40:13;;;;;;;35.92;28.15;;;31.40;99.90;;;;;;5073263;28;20542;-67
2022/07/28 05:42:41;;;;;;;32.88;26.70;;;31.30;99.90;;;;;;5074014;28;20025;-67
2022/07/28 05:45:09;;;;;;;36.75;26.77;;;31.40;99.90;;;;;;5073981;28;20075;-70
2022/07/28 05:47:50;;;;;;;30.50;25.67;;;31.60;99.90;;;;;;5073623;28;20078;-70
2022/07/28 05:50:19;;;;;;;33.72;25.65;;;31.70;99.90;;;;;;5073430;28;20095;-70
2022/07/28 05:52:48;;;;;;;33.05;25.90;;;31.80;99.90;;;;;;5073320;28;20028;-69
2022/07/28 05:55:16;;;;;;;37.03;27.25;;;31.90;99.90;;;;;;5073566;28;20063;-66
2022/07/28 05:57:43;;;;;;;34.20;26.30;;;31.80;99.90;;;;;;5073356;28;20036;-66
2022/07/28 06:00:12;;;;;;;36.25;27.00;;;31.80;99.90;;;;;;5073625;28;20043;-69
2022/07/28 06:02:40;;;;;;;33.13;25.58;;;31.90;99.90;;;;;;5073452;28;20028;-69
2022/07/28 06:05:07;;;;;;;35.67;25.75;;;32.00;99.90;;;;;;5073172;28;20066;-70
2022/07/28 06:07:33;;;;;;;28.95;23.63;;;32.10;99.90;;;;;;5073344;28;20016;-70
2022/07/28 06:10:00;;;;;;;27.20;22.70;;;32.20;99.90;;;;;;5073222;28;20036;-68
2022/07/28 06:12:30;;;;;;;38.42;26.85;;;32.20;99.90;;;;;;5064934;28;20028;-67
2022/07/28 06:14:56;;;;;;;35.65;26.70;;;32.10;99.90;;;;;;5067629;28;20051;-67
2022/07/28 06:17:23;;;;;;;32.58;26.88;;;32.00;99.90;;;;;;5063960;28;20113;-67
2022/07/28 06:19:49;;;;;;;34.22;26.40;;;31.90;99.90;;;;;;5060965;28;20367;-67
2022/07/28 06:22:16;;;;;;;32.78;24.75;;;31.90;99.90;;;;;;5061953;28;20564;-68
2022/07/28 06:24:43;;;;;;;31.15;23.50;;;32.00;99.90;;;;;;5062889;28;20032;-70
2022/07/28 06:27:09;;;;;;;33.15;24.00;;;31.90;99.90;;;;;;5060843;28;20020;-69
2022/07/28 06:29:36;;;;;;;29.83;24.25;;;31.90;99.90;;;;;;5061904;28;20412;-68
2022/07/28 06:32:02;;;;;;;27.73;23.13;;;31.80;99.90;;;;;;5065766;28;20017;-69
2022/07/28 06:34:29;;;;;;;29.95;22.90;;;31.90;99.90;;;;;;5072877;28;20428;-69
2022/07/28 06:36:55;;;;;;;27.10;22.77;;;32.00;99.90;;;;;;5072980;28;20031;-70
2022/07/28 06:39:22;;;;;;;36.13;23.90;;;32.10;99.90;;;;;;5072990;28;20016;-69
2022/07/28 06:41:48;;;;;;;31.73;22.40;;;32.30;99.90;;;;;;5072606;28;20033;-69
2022/07/28 06:44:15;;;;;;;30.10;21.90;;;32.50;99.90;;;;;;5066431;28;20052;-69
2022/07/28 06:46:41;;;;;;;26.42;20.13;;;32.70;99.90;;;;;;5056307;28;20382;-69
2022/07/28 06:49:08;;;;;;;27.50;20.80;;;32.80;99.90;;;;;;5052550;28;20028;-69
2022/07/28 06:51:35;;;;;;;27.95;21.92;;;32.80;99.90;;;;;;5052929;28;20422;-69
2022/07/28 06:54:01;;;;;;;27.08;22.42;;;32.90;99.90;;;;;;5055900;28;20044;-69
2022/07/28 06:56:28;;;;;;;26.98;21.98;;;33.10;99.70;;;;;;5061829;28;20442;-70
2022/07/28 06:58:54;;;;;;;34.22;22.35;;;33.10;99.90;;;;;;5052927;28;20177;-70
2022/07/28 07:01:21;;;;;;;31.02;23.33;;;33.10;99.10;;;;;;5052777;28;20047;-69
2022/07/28 07:03:48;;;;;;;26.50;22.10;;;33.20;98.80;;;;;;5052679;28;20033;-70
2022/07/28 07:06:14;;;;;;;34.85;24.33;;;33.30;99.30;;;;;;5052492;28;20029;-70
2022/07/28 07:08:41;;;;;;;28.83;23.83;;;33.40;99.20;;;;;;5052518;28;20032;-70
2022/07/28 07:11:07;;;;;;;28.45;23.30;;;33.40;99.20;;;;;;5052470;28;20496;-70
2022/07/28 07:13:34;;;;;;;27.10;21.73;;;33.40;98.40;;;;;;5052378;28;20033;-69
2022/07/28 07:16:00;;;;;;;28.05;20.88;;;33.40;97.80;;;;;;5052414;28;20394;-70
2022/07/28 07:18:27;;;;;;;26.38;18.60;;;33.30;97.40;;;;;;5052405;28;20033;-69
2022/07/28 07:20:55;;;;;;;24.30;19.88;;;33.30;95.90;;;;;;5052209;28;20037;-70
2022/07/28 07:23:22;;;;;;;23.35;18.95;;;33.20;97.00;;;;;;5052301;28;20013;-69
2022/07/28 07:25:49;;;;;;;25.10;20.83;;;33.20;96.30;;;;;;5053506;28;20021;-69
2022/07/28 07:28:16;;;;;;;25.17;22.08;;;33.30;96.80;;;;;;5055944;28;20017;-69
2022/07/28 07:30:42;;;;;;;27.52;22.30;;;33.20;97.20;;;;;;5055981;28;20465;-70
2022/07/28 07:33:09;;;;;;;25.70;19.73;;;33.10;97.50;;;;;;5055821;28;20038;-70
2022/07/28 07:35:36;;;;;;;26.90;20.52;;;33.20;96.60;;;;;;5055551;28;20083;-71
2022/07/28 07:38:03;;;;;;;26.65;20.33;;;33.20;97.20;;;;;;5056095;28;20481;-69
2022/07/28 07:40:30;;;;;;;24.17;19.65;;;33.30;97.20;;;;;;5065117;28;20056;-69
2022/07/28 07:42:57;;;;;;;26.77;20.30;;;33.30;96.70;;;;;;5065154;28;20048;-69
2022/07/28 07:45:23;;;;;;;24.00;19.15;;;33.40;96.70;;;;;;5063521;28;20009;-69
2022/07/28 07:47:50;;;;;;;24.67;19.02;;;33.40;96.90;;;;;;5064837;28;20472;-69
2022/07/28 07:50:16;;;;;;;28.00;19.73;;;33.40;96.40;;;;;;5068098;28;20075;-70
2022/07/28 07:52:43;;;;;;;25.23;17.90;;;33.30;96.20;;;;;;5065576;28;20070;-68
2022/07/28 07:55:09;;;;;;;27.80;17.63;;;33.50;94.90;;;;;;5063901;28;20041;-68
2022/07/28 07:57:36;;;;;;;26.90;18.17;;;33.50;93.90;;;;;;5064141;28;20132;-68
2022/07/28 08:00:03;;;;;;;26.20;19.15;;;33.40;95.10;;;;;;5063149;28;20032;-69
2022/07/28 08:02:30;;;;;;;24.23;18.02;;;33.20;93.70;;;;;;5064632;28;20103;-70
2022/07/28 08:04:57;;;;;;;25.45;18.70;;;33.40;94.30;;;;;;5064722;28;20444;-70
2022/07/28 08:07:23;;;;;;;20.52;16.60;;;33.50;93.40;;;;;;5063213;28;20477;-69
2022/07/28 08:09:50;;;;;;;23.63;17.40;;;33.60;93.90;;;;;;5064533;28;20028;-69
2022/07/28 08:12:16;;;;;;;20.05;15.50;;;33.60;93.80;;;;;;5064701;28;20024;-69
2022/07/28 08:14:43;;;;;;;25.02;17.05;;;33.50;93.50;;;;;;5063092;28;20020;-70
2022/07/28 08:17:09;;;;;;;24.75;18.67;;;33.40;92.50;;;;;;5061189;28;20020;-70
2022/07/28 08:19:35;;;;;;;24.98;18.92;;;33.20;93.60;;;;;;5058933;28;20055;-71
2022/07/28 08:22:02;;;;;;;29.38;18.13;;;33.10;94.60;;;;;;5059563;28;20044;-69
2022/07/28 08:24:28;;;;;;;29.67;18.75;;;33.00;94.90;;;;;;5063102;28;20024;-69
2022/07/28 08:26:55;;;;;;;30.92;19.52;;;32.90;94.60;;;;;;5060496;28;20032;-68
2022/07/28 08:29:22;;;;;;;27.88;19.35;;;32.70;96.60;;;;;;5062581;28;20021;-72
2022/07/28 08:31:48;;;;;;;36.67;22.40;;;32.60;97.50;;;;;;5064486;28;20474;-69
2022/07/28 08:34:15;;;;;;;34.50;21.42;;;32.50;98.90;;;;;;5085529;22;20045;-70
2022/07/28 08:36:41;;;;;;;33.33;24.73;;;32.10;99.90;;;;;;5074469;28;20024;-69
2022/07/28 08:39:08;;;;;;;35.65;24.02;;;31.90;99.90;;;;;;5079712;28;20065;-69
2022/07/28 08:41:44;;;;;;;40.08;25.23;;;31.90;99.90;;;;;;5085385;28;20081;-69
2022/07/28 08:44:15;;;;;;;40.65;27.20;;;31.80;99.90;;;;;;5085342;28;20020;-70
2022/07/28 08:46:43;;;;;;;46.50;29.77;;;31.70;99.90;;;;;;5085199;28;20048;-69
2022/07/28 08:49:10;;;;;;;47.78;32.80;;;31.60;99.90;;;;;;5084157;28;20104;-69
2022/07/28 08:51:39;;;;;;;50.03;32.45;;;31.50;99.90;;;;;;5083497;28;20269;-70
2022/07/28 08:54:06;;;;;;;46.22;31.95;;;31.60;99.90;;;;;;5081577;28;20016;-70
2022/07/28 08:56:34;;;;;;;46.88;32.85;;;31.60;99.70;;;;;;5083817;28;20023;-72
2022/07/28 08:59:02;;;;;;;42.40;29.60;;;31.50;99.70;;;;;;5085137;28;20500;-69
2022/07/28 09:01:29;;;;;;;37.90;27.92;;;31.50;99.70;;;;;;5084279;28;20048;-69
2022/07/28 09:03:56;;;;;;;40.70;27.13;;;31.50;99.90;;;;;;5083996;28;20085;-72
2022/07/28 09:06:24;;;;;;;41.80;30.55;;;31.50;99.90;;;;;;5094678;28;20046;-72
2022/07/28 09:08:50;;;;;;;68.07;46.40;;;31.70;99.90;;;;;;5094344;28;20024;-69
2022/07/28 09:11:17;;;;;;;55.65;42.90;;;31.70;99.90;;;;;;5093837;28;20362;-71
2022/07/28 09:13:43;;;;;;;44.97;28.45;;;31.80;99.90;;;;;;5094391;28;20027;-71
2022/07/28 09:16:14;;;;;;;41.70;26.45;;;31.70;99.70;;;;;;5094220;28;20020;-71
2022/07/28 09:18:40;;;;;;;41.42;23.80;;;31.70;99.20;;;;;;5094082;28;20042;-71
2022/07/28 09:21:07;;;;;;;116.85;104.28;;;31.50;98.80;;;;;;5094209;28;20046;-72
2022/07/28 09:23:38;;;;;;;59.55;46.38;;;31.50;99.40;;;;;;5094213;28;20093;-72
2022/07/28 09:26:07;;;;;;;44.42;29.90;;;31.50;99.50;;;;;;5093964;28;20487;-72
2022/07/28 09:28:54;;;;;;;33.20;22.88;;;31.50;98.60;;;;;;5094077;28;20480;-72
2022/07/28 09:31:22;;;;;;;58.88;29.60;;;31.30;98.20;;;;;;5093881;28;20054;-72
2022/07/28 09:33:54;;;;;;;39.40;26.33;;;31.30;99.50;;;;;;5093918;28;20445;-72
2022/07/28 09:36:21;;;;;;;46.20;35.95;;;31.30;98.50;;;;;;5093810;28;20043;-72
2022/07/28 09:38:48;;;;;;;47.22;31.13;;;31.30;98.90;;;;;;5093762;28;20463;-72
2022/07/28 09:41:17;;;;;;;59.00;37.05;;;31.30;98.00;;;;;;5093633;28;20126;-72
2022/07/28 09:43:45;;;;;;;60.08;32.80;;;31.30;97.80;;;;;;5093764;28;20031;-72
2022/07/28 09:46:15;;;;;;;46.92;30.67;;;31.30;98.50;;;;;;5093723;28;20016;-72
2022/07/28 09:48:47;;;;;;;82.70;60.55;;;31.30;98.60;;;;;;5093896;28;20051;-72
2022/07/28 09:51:14;;;;;;;;;;;31.40;98.30;;;;;;5093953;28;20028;-71
2022/07/28 09:53:42;;;;;;;38.17;26.10;;;31.50;97.90;;;;;;5093648;28;20287;-71
2022/07/28 09:56:10;;;;;;;138.45;82.78;;;31.40;97.50;;;;;;5093945;28;20385;-72
2022/07/28 09:58:37;;;;;;;143.55;77.57;;;31.40;97.70;;;;;;5093330;28;20023;-70
2022/07/28 10:01:07;;;;;;;148.57;74.82;;;31.50;97.60;;;;;;5093626;28;20016;-70
2022/07/28 10:03:36;;;;;;;71.90;39.53;;;31.50;97.50;;;;;;5093509;28;20021;-71
2022/07/28 10:06:06;;;;;;;72.40;42.72;;;31.60;97.30;;;;;;5093324;28;20413;-72
2022/07/28 10:08:39;;;;;;;92.43;51.40;;;31.60;96.80;;;;;;5093525;28;20038;-72
2022/07/28 10:11:06;;;;;;;95.45;45.35;;;31.60;96.60;;;;;;5093393;28;20074;-72
2022/07/28 10:13:32;;;;;;;62.92;31.50;;;31.60;96.60;;;;;;5093624;28;20491;-72
2022/07/28 10:18:33;;;;;;;48.17;23.77;;;31.60;96.40;;;;;;5093238;28;20500;-72
2022/07/28 10:21:01;;;;;;;43.88;23.63;;;31.60;96.40;;;;;;5093398;28;20024;-72
2022/07/28 10:23:28;;;;;;;56.78;27.58;;;31.60;96.40;;;;;;5093351;28;20052;-72
2022/07/28 10:25:56;;;;;;;52.55;30.13;;;31.60;96.20;;;;;;5093189;28;20455;-72
2022/07/28 10:28:23;;;;;;;93.78;42.63;;;31.60;95.90;;;;;;5093311;28;20012;-72
2022/07/28 10:30:54;;;;;;;87.75;44.55;;;31.50;95.80;;;;;;5093364;28;20111;-71
2022/07/28 10:33:23;;;;;;;62.70;35.65;;;31.50;95.30;;;;;;5093156;28;20028;-70
2022/07/28 10:35:50;;;;;;;86.88;50.72;;;31.40;95.60;;;;;;5093020;28;20036;-68
2022/07/28 10:38:20;;;;;;;107.68;55.92;;;31.40;96.40;;;;;;5093151;28;20023;-72
2022/07/28 10:40:47;;;;;;;90.07;49.47;;;31.40;97.10;;;;;;5092748;28;20109;-72
2022/07/28 10:43:14;;;;;;;81.03;43.17;;;31.40;96.90;;;;;;5093021;28;20086;-72
2022/07/28 10:45:42;;;;;;;62.08;37.17;;;31.30;96.80;;;;;;5092933;28;20016;-71
2022/07/28 10:48:09;;;;;;;83.53;45.35;;;31.30;97.00;;;;;;5092711;28;20024;-70
2022/07/28 10:50:37;;;;;;;92.10;45.70;;;31.30;97.50;;;;;;5092845;28;20102;-71
2022/07/28 10:53:05;;;;;;;80.00;43.80;;;31.30;97.80;;;;;;5092973;28;20016;-72
2022/07/28 10:55:32;;;;;;;80.35;41.42;;;31.20;97.40;;;;;;5092650;28;20103;-72
2022/07/28 10:58:12;;;;;;;79.93;41.40;;;31.20;98.00;;;;;;5092665;28;20028;-70
2022/07/28 11:00:47;;;;;;;73.43;38.70;;;31.20;97.80;;;;;;5093451;28;20031;-70
2022/07/28 11:03:19;;;;;;;70.70;45.00;;;31.10;98.50;;;;;;5096794;28;20129;-70
2022/07/28 11:05:46;;;;;;;70.47;42.47;;;31.10;98.10;;;;;;5096622;28;20022;-71
2022/07/28 11:08:15;;;;;;;64.18;35.03;;;31.10;99.10;;;;;;5096454;28;20095;-71
2022/07/28 11:10:46;;;;;;;100.18;60.00;;;31.10;99.20;;;;;;5096625;28;20024;-71
2022/07/28 11:13:18;;;;;;;124.50;67.60;;;31.00;99.20;;;;;;5096484;28;20028;-72
2022/07/28 11:15:45;;;;;;;85.35;49.03;;;31.00;99.30;;;;;;5096469;28;20035;-71
2022/07/28 11:18:12;;;;;;;79.50;39.65;;;30.90;99.50;;;;;;5096368;28;20024;-69
2022/07/28 11:20:43;;;;;;;105.78;46.67;;;30.90;99.70;;;;;;5096176;28;20024;-68
2022/07/28 11:23:15;;;;;;;100.35;45.83;;;30.90;99.90;;;;;;5096299;28;20016;-70
2022/07/28 11:25:42;;;;;;;89.85;45.13;;;30.90;99.90;;;;;;5096389;28;20027;-70
2022/07/28 11:28:09;;;;;;;39.28;21.13;;;30.90;99.90;;;;;;5096275;28;20020;-71
2022/07/28 11:30:36;;;;;;;64.93;27.63;;;30.80;99.90;;;;;;5096339;28;20024;-70
2022/07/28 11:33:08;;;;;;;60.88;25.15;;;30.80;99.90;;;;;;5096355;28;20103;-71
2022/07/28 11:35:38;;;;;;;72.88;36.25;;;30.80;99.90;;;;;;5095964;28;20048;-70
2022/07/28 11:38:05;;;;;;;152.77;75.95;;;30.90;99.90;;;;;;5096218;28;20024;-73
2022/07/28 11:40:35;;;;;;;156.38;83.07;;;30.80;99.90;;;;;;5096079;28;20055;-71
2022/07/28 11:43:06;;;;;;;94.38;47.25;;;30.90;99.90;;;;;;5096025;28;20095;-71
2022/07/28 11:45:33;;;;;;;52.42;27.70;;;30.90;99.90;;;;;;5095931;28;20040;-70
2022/07/28 11:48:05;;;;;;;44.95;23.75;;;30.80;99.90;;;;;;5095699;28;20073;-71
2022/07/28 11:50:31;;;;;;;36.08;22.27;;;30.80;99.90;;;;;;5095950;28;20073;-71
2022/07/28 11:52:58;;;;;;;40.92;22.98;;;30.70;99.90;;;;;;5094633;28;20451;-71
2022/07/28 11:55:25;;;;;;;54.13;26.45;;;30.60;99.90;;;;;;5095746;28;20024;-72
2022/07/28 11:57:52;;;;;;;45.80;22.80;;;30.70;99.90;;;;;;5095844;28;20051;-71
2022/07/28 12:00:21;;;;;;;42.50;21.98;;;30.80;99.90;;;;;;5095760;28;20485;-70
2022/07/28 12:02:48;;;;;;;39.53;20.90;;;30.70;99.90;;;;;;5095619;28;20484;-71
2022/07/28 12:05:16;;;;;;;37.17;21.73;;;30.70;99.90;;;;;;5095783;28;20055;-71
2022/07/28 12:07:45;;;;;;;42.30;23.23;;;30.60;99.90;;;;;;5095684;28;20354;-71
2022/07/28 12:10:17;;;;;;;34.67;20.90;;;30.50;99.90;;;;;;5095461;28;20468;-71
2022/07/28 12:12:50;;;;;;;36.15;20.60;;;30.50;99.90;;;;;;5094239;28;20024;-70
2022/07/28 12:15:18;;;;;;;32.28;18.08;;;30.50;99.90;;;;;;5095271;28;20032;-70
2022/07/28 12:17:45;;;;;;;31.88;18.35;;;30.50;99.90;;;;;;5095143;28;20442;-71
2022/07/28 12:20:13;;;;;;;33.92;18.02;;;30.60;99.90;;;;;;5073291;28;20036;-70
2022/07/28 12:22:39;;;;;;;32.22;18.90;;;30.50;99.90;;;;;;5068409;28;20036;-65
2022/07/28 12:25:06;;;;;;;38.97;21.05;;;30.50;99.90;;;;;;5055327;28;20517;-66
2022/07/28 12:27:34;;;;;;;29.25;16.27;;;30.40;99.90;;;;;;5060382;28;20470;-66
2022/07/28 12:30:02;;;;;;;30.95;15.38;;;30.40;99.90;;;;;;5055537;28;20044;-64
2022/07/28 12:32:31;;;;;;;39.80;17.38;;;30.40;99.90;;;;;;5054516;28;20479;-66